sensor_id;sensor_type;location;lat;lon;timestamp;pressure;altitude;pressure_sealevel;temperature;humidity
69214;BME280;56325;47.030;18.518;2023-04-30T00:01:52;100323.03;;;12.51;75.27
69214;BME280;56325;47.030;18.518;2023-04-30T00:04:27;100316.94;;;12.47;75.41
69214;BME280;56325;47.030;18.518;2023-04-30T00:07:02;100318.56;;;12.30;75.98
69214;BME280;56325;47.030;18.518;2023-04-30T00:09:37;100310.78;;;12.28;76.67
69214;BME280;56325;47.030;18.518;2023-04-30T00:12:11;100310.31;;;12.30;76.93
69214;BME280;56325;47.030;18.518;2023-04-30T00:14:46;100311.53;;;12.29;77.28
69214;BME280;56325;47.030;18.518;2023-04-30T00:17:21;100299.75;;;12.28;77.48
69214;BME280;56325;47.030;18.518;2023-04-30T00:19:56;100303.03;;;12.41;77.29
69214;BME280;56325;47.030;18.518;2023-04-30T00:22:31;100309.19;;;12.60;76.81
69214;BME280;56325;47.030;18.518;2023-04-30T00:25:07;100301.97;;;12.63;76.66
69214;BME280;56325;47.030;18.518;2023-04-30T00:27:41;100309.41;;;12.71;76.66
69214;BME280;56325;47.030;18.518;2023-04-30T00:30:16;100306.38;;;12.69;76.82
69214;BME280;56325;47.030;18.518;2023-04-30T00:32:51;100301.28;;;12.92;76.17
69214;BME280;56325;47.030;18.518;2023-04-30T00:35:25;100301.47;;;12.88;76.24
69214;BME280;56325;47.030;18.518;2023-04-30T00:38:01;100311.75;;;12.88;76.65
69214;BME280;56325;47.030;18.518;2023-04-30T00:40:36;100300.38;;;12.71;77.04
69214;BME280;56325;47.030;18.518;2023-04-30T00:43:11;100301.31;;;12.68;76.83
69214;BME280;56325;47.030;18.518;2023-04-30T00:45:46;100308.56;;;12.41;77.87
69214;BME280;56325;47.030;18.518;2023-04-30T00:48:21;100309.00;;;12.16;79.24
69214;BME280;56325;47.030;18.518;2023-04-30T00:50:55;100317.94;;;12.11;79.72
69214;BME280;56325;47.030;18.518;2023-04-30T00:53:32;100305.44;;;12.25;79.55
69214;BME280;56325;47.030;18.518;2023-04-30T00:56:08;100313.72;;;12.48;78.27
69214;BME280;56325;47.030;18.518;2023-04-30T00:58:44;100313.78;;;12.63;77.66
69214;BME280;56325;47.030;18.518;2023-04-30T01:01:19;100313.12;;;12.68;76.92
69214;BME280;56325;47.030;18.518;2023-04-30T01:03:54;100317.28;;;12.64;77.06
69214;BME280;56325;47.030;18.518;2023-04-30T01:06:28;100318.13;;;12.55;77.12
69214;BME280;56325;47.030;18.518;2023-04-30T01:09:05;100306.31;;;12.55;76.86
69214;BME280;56325;47.030;18.518;2023-04-30T01:11:48;100314.81;;;12.42;77.58
69214;BME280;56325;47.030;18.518;2023-04-30T01:17:30;100320.78;;;12.17;78.04
69214;BME280;56325;47.030;18.518;2023-04-30T01:20:06;100318.22;;;12.13;78.41
69214;BME280;56325;47.030;18.518;2023-04-30T01:22:48;100308.59;;;12.08;78.57
69214;BME280;56325;47.030;18.518;2023-04-30T01:25:55;100325.44;;;11.77;79.90
69214;BME280;56325;47.030;18.518;2023-04-30T01:28:37;100318.81;;;11.75;80.16
69214;BME280;56325;47.030;18.518;2023-04-30T01:31:13;100323.69;;;11.89;80.55
69214;BME280;56325;47.030;18.518;2023-04-30T01:33:48;100325.72;;;11.79;81.07
69214;BME280;56325;47.030;18.518;2023-04-30T01:36:34;100321.31;;;11.64;81.71
69214;BME280;56325;47.030;18.518;2023-04-30T01:39:18;100325.44;;;11.68;82.12
69214;BME280;56325;47.030;18.518;2023-04-30T01:42:02;100327.84;;;11.85;81.68
69214;BME280;56325;47.030;18.518;2023-04-30T01:45:00;100323.22;;;11.91;81.39
69214;BME280;56325;47.030;18.518;2023-04-30T01:47:39;100320.41;;;12.09;80.73
69214;BME280;56325;47.030;18.518;2023-04-30T01:50:22;100332.41;;;11.97;81.47
69214;BME280;56325;47.030;18.518;2023-04-30T01:52:59;100329.38;;;11.76;82.12
69214;BME280;56325;47.030;18.518;2023-04-30T01:55:36;100330.94;;;11.77;82.33
69214;BME280;56325;47.030;18.518;2023-04-30T01:58:14;100332.00;;;11.80;82.13
69214;BME280;56325;47.030;18.518;2023-04-30T02:00:51;100332.75;;;11.71;82.69
69214;BME280;56325;47.030;18.518;2023-04-30T02:03:26;100334.59;;;11.74;82.56
69214;BME280;56325;47.030;18.518;2023-04-30T02:06:02;100337.34;;;11.84;82.75
69214;BME280;56325;47.030;18.518;2023-04-30T02:08:37;100331.09;;;11.65;82.97
69214;BME280;56325;47.030;18.518;2023-04-30T02:11:12;100337.81;;;11.73;83.02
69214;BME280;56325;47.030;18.518;2023-04-30T02:13:46;100338.13;;;11.66;83.13
69214;BME280;56325;47.030;18.518;2023-04-30T02:16:22;100341.50;;;11.70;83.07
69214;BME280;56325;47.030;18.518;2023-04-30T02:18:57;100343.19;;;11.67;83.08
69214;BME280;56325;47.030;18.518;2023-04-30T02:21:32;100341.22;;;11.59;83.30
69214;BME280;56325;47.030;18.518;2023-04-30T02:24:06;100340.56;;;11.73;83.09
69214;BME280;56325;47.030;18.518;2023-04-30T02:26:41;100332.78;;;11.62;83.20
69214;BME280;56325;47.030;18.518;2023-04-30T02:29:15;100348.25;;;11.50;83.80
69214;BME280;56325;47.030;18.518;2023-04-30T02:31:52;100349.78;;;11.52;83.66
69214;BME280;56325;47.030;18.518;2023-04-30T02:34:26;100357.25;;;11.78;82.40
69214;BME280;56325;47.030;18.518;2023-04-30T02:37:01;100353.28;;;11.61;82.88
69214;BME280;56325;47.030;18.518;2023-04-30T02:39:36;100358.31;;;11.72;82.45
69214;BME280;56325;47.030;18.518;2023-04-30T02:42:10;100360.19;;;11.47;83.69
69214;BME280;56325;47.030;18.518;2023-04-30T02:44:45;100360.31;;;11.80;82.12
69214;BME280;56325;47.030;18.518;2023-04-30T02:47:21;100356.66;;;11.56;83.36
69214;BME280;56325;47.030;18.518;2023-04-30T02:49:55;100365.53;;;11.60;83.36
69214;BME280;56325;47.030;18.518;2023-04-30T02:52:30;100362.91;;;11.66;82.77
69214;BME280;56325;47.030;18.518;2023-04-30T02:55:06;100361.12;;;11.54;83.60
69214;BME280;56325;47.030;18.518;2023-04-30T02:57:41;100368.75;;;11.59;83.72
69214;BME280;56325;47.030;18.518;2023-04-30T03:00:16;100372.72;;;11.67;83.88
69214;BME280;56325;47.030;18.518;2023-04-30T03:02:52;100372.28;;;11.59;84.46
69214;BME280;56325;47.030;18.518;2023-04-30T03:05:27;100380.69;;;11.65;84.64
69214;BME280;56325;47.030;18.518;2023-04-30T03:08:01;100380.50;;;11.68;84.57
69214;BME280;56325;47.030;18.518;2023-04-30T03:10:36;100384.34;;;11.71;84.37
69214;BME280;56325;47.030;18.518;2023-04-30T03:13:10;100379.91;;;11.64;84.96
69214;BME280;56325;47.030;18.518;2023-04-30T03:15:45;100382.06;;;11.51;86.55
69214;BME280;56325;47.030;18.518;2023-04-30T03:18:21;100375.66;;;11.54;86.86
69214;BME280;56325;47.030;18.518;2023-04-30T03:20:56;100380.84;;;11.61;86.92
69214;BME280;56325;47.030;18.518;2023-04-30T03:23:30;100381.59;;;11.71;87.02
69214;BME280;56325;47.030;18.518;2023-04-30T03:26:05;100384.84;;;11.51;89.09
69214;BME280;56325;47.030;18.518;2023-04-30T03:28:40;100394.00;;;11.66;88.82
69214;BME280;56325;47.030;18.518;2023-04-30T03:31:15;100394.00;;;11.57;88.81
69214;BME280;56325;47.030;18.518;2023-04-30T03:33:51;100390.63;;;11.53;90.09
69214;BME280;56325;47.030;18.518;2023-04-30T03:36:26;100386.34;;;11.52;90.29
69214;BME280;56325;47.030;18.518;2023-04-30T03:39:00;100382.06;;;11.51;90.64
69214;BME280;56325;47.030;18.518;2023-04-30T03:41:36;100392.16;;;11.54;90.03
69214;BME280;56325;47.030;18.518;2023-04-30T03:44:10;100393.69;;;11.55;89.76
69214;BME280;56325;47.030;18.518;2023-04-30T04:57:50;100454.03;;;13.06;82.13
69214;BME280;56325;47.030;18.518;2023-04-30T05:00:26;100453.13;;;13.06;82.14
69214;BME280;56325;47.030;18.518;2023-04-30T05:03:00;100476.91;;;12.47;83.51
69214;BME280;56325;47.030;18.518;2023-04-30T05:05:36;100477.09;;;12.34;83.50
69214;BME280;56325;47.030;18.518;2023-04-30T05:08:10;100477.97;;;12.50;83.46
69214;BME280;56325;47.030;18.518;2023-04-30T05:10:45;100478.28;;;12.52;83.14
69214;BME280;56325;47.030;18.518;2023-04-30T05:13:21;100485.31;;;12.53;82.69
69214;BME280;56325;47.030;18.518;2023-04-30T05:15:56;100483.63;;;12.55;82.57
69214;BME280;56325;47.030;18.518;2023-04-30T05:18:30;100488.94;;;12.68;82.73
69214;BME280;56325;47.030;18.518;2023-04-30T05:21:05;100494.87;;;12.75;81.57
69214;BME280;56325;47.030;18.518;2023-04-30T05:23:39;100488.06;;;12.53;81.92
69214;BME280;56325;47.030;18.518;2023-04-30T05:26:14;100491.00;;;12.82;81.31
69214;BME280;56325;47.030;18.518;2023-04-30T05:28:50;100501.03;;;12.70;80.76
69214;BME280;56325;47.030;18.518;2023-04-30T05:31:25;100505.09;;;12.51;82.33
69214;BME280;56325;47.030;18.518;2023-04-30T05:33:59;100507.53;;;12.49;82.51
69214;BME280;56325;47.030;18.518;2023-04-30T05:36:34;100499.56;;;12.51;81.70
69214;BME280;56325;47.030;18.518;2023-04-30T05:39:09;100502.31;;;12.51;82.07
69214;BME280;56325;47.030;18.518;2023-04-30T05:41:44;100509.00;;;12.68;81.28
69214;BME280;56325;47.030;18.518;2023-04-30T05:44:20;100507.31;;;12.71;81.40
69214;BME280;56325;47.030;18.518;2023-04-30T05:46:54;100508.47;;;12.88;83.54
69214;BME280;56325;47.030;18.518;2023-04-30T05:49:29;100498.47;;;13.92;78.99
69214;BME280;56325;47.030;18.518;2023-04-30T05:52:07;100503.91;;;13.71;81.31
69214;BME280;56325;47.030;18.518;2023-04-30T05:54:41;100503.28;;;14.85;76.34
69214;BME280;56325;47.030;18.518;2023-04-30T05:57:16;100504.50;;;13.75;77.49
69214;BME280;56325;47.030;18.518;2023-04-30T05:59:52;100503.00;;;13.51;77.52
69214;BME280;56325;47.030;18.518;2023-04-30T06:02:54;100497.91;;;13.88;77.65
69214;BME280;56325;47.030;18.518;2023-04-30T06:05:36;100497.91;;;13.88;77.65
69214;BME280;56325;47.030;18.518;2023-04-30T06:08:13;100516.81;;;13.27;78.72
69214;BME280;56325;47.030;18.518;2023-04-30T06:10:48;100498.47;;;13.14;79.22
69214;BME280;56325;47.030;18.518;2023-04-30T06:13:23;100499.91;;;13.34;79.10
69214;BME280;56325;47.030;18.518;2023-04-30T06:15:58;100497.38;;;13.45;78.44
69214;BME280;56325;47.030;18.518;2023-04-30T06:18:34;100498.44;;;13.24;78.38
69214;BME280;56325;47.030;18.518;2023-04-30T06:21:09;100499.66;;;13.47;77.62
69214;BME280;56325;47.030;18.518;2023-04-30T06:23:44;100498.09;;;13.31;78.26
69214;BME280;56325;47.030;18.518;2023-04-30T06:26:19;100506.13;;;13.20;78.86
69214;BME280;56325;47.030;18.518;2023-04-30T06:28:53;100482.38;;;13.37;78.45
69214;BME280;56325;47.030;18.518;2023-04-30T06:31:28;100492.28;;;13.67;77.59
69214;BME280;56325;47.030;18.518;2023-04-30T06:34:04;100500.47;;;13.62;76.98
69214;BME280;56325;47.030;18.518;2023-04-30T06:36:39;100506.09;;;13.67;77.31
69214;BME280;56325;47.030;18.518;2023-04-30T06:39:14;100506.41;;;13.84;77.16
69214;BME280;56325;47.030;18.518;2023-04-30T06:41:49;100500.28;;;13.95;77.44
69214;BME280;56325;47.030;18.518;2023-04-30T06:44:26;100501.53;;;13.94;76.16
69214;BME280;56325;47.030;18.518;2023-04-30T06:47:00;100508.41;;;13.84;76.09
69214;BME280;56325;47.030;18.518;2023-04-30T06:49:36;100501.16;;;14.01;75.95
69214;BME280;56325;47.030;18.518;2023-04-30T06:52:11;100515.56;;;14.05;76.13
69214;BME280;56325;47.030;18.518;2023-04-30T06:54:46;100512.88;;;13.96;75.67
69214;BME280;56325;47.030;18.518;2023-04-30T06:57:20;100507.94;;;14.59;76.56
69214;BME280;56325;47.030;18.518;2023-04-30T06:59:56;100505.19;;;14.79;74.81
69214;BME280;56325;47.030;18.518;2023-04-30T07:02:31;100511.19;;;14.42;73.97
69214;BME280;56325;47.030;18.518;2023-04-30T07:05:07;100509.47;;;14.30;74.45
69214;BME280;56325;47.030;18.518;2023-04-30T07:07:43;100517.19;;;14.41;73.30
69214;BME280;56325;47.030;18.518;2023-04-30T07:10:18;100519.41;;;14.52;73.65
69214;BME280;56325;47.030;18.518;2023-04-30T07:12:53;100511.41;;;14.74;72.84
69214;BME280;56325;47.030;18.518;2023-04-30T07:15:28;100509.59;;;15.06;72.65
69214;BME280;56325;47.030;18.518;2023-04-30T07:18:03;100510.38;;;15.27;72.29
69214;BME280;56325;47.030;18.518;2023-04-30T07:20:39;100503.75;;;15.19;70.51
69214;BME280;56325;47.030;18.518;2023-04-30T07:23:14;100513.94;;;14.92;70.79
69214;BME280;56325;47.030;18.518;2023-04-30T07:25:48;100508.53;;;14.83;71.04
69214;BME280;56325;47.030;18.518;2023-04-30T07:28:23;100510.78;;;14.99;71.34
69214;BME280;56325;47.030;18.518;2023-04-30T07:30:57;100517.16;;;15.05;71.22
69214;BME280;56325;47.030;18.518;2023-04-30T07:33:32;100517.72;;;15.09;70.76
69214;BME280;56325;47.030;18.518;2023-04-30T07:36:08;100510.19;;;15.30;69.97
69214;BME280;56325;47.030;18.518;2023-04-30T07:38:43;100511.34;;;15.03;70.10
69214;BME280;56325;47.030;18.518;2023-04-30T07:41:17;100524.44;;;15.23;70.05
69214;BME280;56325;47.030;18.518;2023-04-30T07:43:52;100517.81;;;15.35;69.42
69214;BME280;56325;47.030;18.518;2023-04-30T07:46:27;100510.47;;;15.53;69.36
69214;BME280;56325;47.030;18.518;2023-04-30T07:49:02;100514.84;;;15.59;69.28
69214;BME280;56325;47.030;18.518;2023-04-30T07:51:38;100500.22;;;15.85;68.66
69214;BME280;56325;47.030;18.518;2023-04-30T07:54:15;100509.94;;;15.74;68.10
69214;BME280;56325;47.030;18.518;2023-04-30T07:56:49;100505.28;;;15.86;67.25
69214;BME280;56325;47.030;18.518;2023-04-30T07:59:24;100507.16;;;16.58;68.83
69214;BME280;56325;47.030;18.518;2023-04-30T08:01:58;100513.97;;;16.88;66.78
69214;BME280;56325;47.030;18.518;2023-04-30T08:04:33;100508.69;;;16.59;65.09
69214;BME280;56325;47.030;18.518;2023-04-30T08:07:09;100505.13;;;16.21;66.20
69214;BME280;56325;47.030;18.518;2023-04-30T08:09:44;100504.50;;;16.37;66.60
69214;BME280;56325;47.030;18.518;2023-04-30T08:12:19;100502.25;;;16.42;64.87
69214;BME280;56325;47.030;18.518;2023-04-30T08:14:59;100498.28;;;16.54;64.84
69214;BME280;56325;47.030;18.518;2023-04-30T08:17:35;100501.94;;;16.65;64.79
69214;BME280;56325;47.030;18.518;2023-04-30T08:20:10;100499.31;;;16.88;63.96
69214;BME280;56325;47.030;18.518;2023-04-30T08:22:46;100503.25;;;17.13;63.06
69214;BME280;56325;47.030;18.518;2023-04-30T08:25:21;100502.25;;;17.16;62.54
69214;BME280;56325;47.030;18.518;2023-04-30T08:27:55;100501.63;;;16.95;62.15
69214;BME280;56325;47.030;18.518;2023-04-30T08:30:30;100503.22;;;17.07;61.78
69214;BME280;56325;47.030;18.518;2023-04-30T08:33:04;100501.47;;;17.15;61.93
69214;BME280;56325;47.030;18.518;2023-04-30T08:35:39;100499.69;;;17.12;61.37
69214;BME280;56325;47.030;18.518;2023-04-30T08:38:15;100498.00;;;17.26;61.63
69214;BME280;56325;47.030;18.518;2023-04-30T08:40:56;100510.56;;;16.73;61.70
69214;BME280;56325;47.030;18.518;2023-04-30T08:43:36;100509.53;;;17.08;60.08
69214;BME280;56325;47.030;18.518;2023-04-30T08:46:11;100507.31;;;17.17;61.01
69214;BME280;56325;47.030;18.518;2023-04-30T08:48:47;100506.38;;;17.43;60.17
69214;BME280;56325;47.030;18.518;2023-04-30T08:51:23;100509.81;;;17.75;58.58
69214;BME280;56325;47.030;18.518;2023-04-30T08:53:59;100518.16;;;17.75;58.74
69214;BME280;56325;47.030;18.518;2023-04-30T08:56:34;100519.94;;;17.89;58.84
69214;BME280;56325;47.030;18.518;2023-04-30T08:59:10;100510.84;;;17.94;58.13
69214;BME280;56325;47.030;18.518;2023-04-30T09:01:45;100510.81;;;17.72;58.08
69214;BME280;56325;47.030;18.518;2023-04-30T09:04:20;100508.34;;;17.96;57.87
69214;BME280;56325;47.030;18.518;2023-04-30T09:06:55;100509.38;;;18.15;57.45
69214;BME280;56325;47.030;18.518;2023-04-30T09:09:37;100502.28;;;18.03;58.10
69214;BME280;56325;47.030;18.518;2023-04-30T09:12:13;100514.47;;;17.46;57.92
69214;BME280;56325;47.030;18.518;2023-04-30T09:14:58;100515.53;;;17.00;59.31
69214;BME280;56325;47.030;18.518;2023-04-30T09:17:34;100510.56;;;17.16;58.24
69214;BME280;56325;47.030;18.518;2023-04-30T09:20:09;100518.37;;;17.65;56.89
69214;BME280;56325;47.030;18.518;2023-04-30T09:22:45;100495.44;;;17.98;56.71
69214;BME280;56325;47.030;18.518;2023-04-30T09:25:37;100506.56;;;18.04;55.65
69214;BME280;56325;47.030;18.518;2023-04-30T09:28:13;100521.25;;;18.16;54.68
69214;BME280;56325;47.030;18.518;2023-04-30T09:30:47;100506.81;;;18.56;54.17
69214;BME280;56325;47.030;18.518;2023-04-30T09:33:22;100508.09;;;18.61;53.58
69214;BME280;56325;47.030;18.518;2023-04-30T09:35:57;100490.34;;;18.81;52.94
69214;BME280;56325;47.030;18.518;2023-04-30T09:38:32;100513.88;;;17.85;53.91
69214;BME280;56325;47.030;18.518;2023-04-30T09:41:20;100510.81;;;17.72;54.69
69214;BME280;56325;47.030;18.518;2023-04-30T09:43:57;100516.56;;;17.62;54.46
69214;BME280;56325;47.030;18.518;2023-04-30T09:46:32;100516.94;;;17.92;53.09
69214;BME280;56325;47.030;18.518;2023-04-30T09:49:10;100514.91;;;18.21;53.69
69214;BME280;56325;47.030;18.518;2023-04-30T09:51:53;100520.97;;;17.86;53.76
69214;BME280;56325;47.030;18.518;2023-04-30T09:54:29;100508.69;;;17.55;54.78
69214;BME280;56325;47.030;18.518;2023-04-30T09:57:08;100504.28;;;18.25;53.79
69214;BME280;56325;47.030;18.518;2023-04-30T09:59:44;100508.09;;;18.27;52.40
69214;BME280;56325;47.030;18.518;2023-04-30T10:02:20;100493.44;;;18.16;53.57
69214;BME280;56325;47.030;18.518;2023-04-30T10:04:57;100497.22;;;18.35;54.34
69214;BME280;56325;47.030;18.518;2023-04-30T10:07:35;100507.31;;;17.88;52.86
69214;BME280;56325;47.030;18.518;2023-04-30T10:10:13;100510.41;;;17.42;53.76
69214;BME280;56325;47.030;18.518;2023-04-30T10:12:51;100498.50;;;18.17;52.49
69214;BME280;56325;47.030;18.518;2023-04-30T10:15:31;100500.25;;;18.48;52.83
69214;BME280;56325;47.030;18.518;2023-04-30T10:18:17;100500.75;;;18.24;52.69
69214;BME280;56325;47.030;18.518;2023-04-30T10:20:53;100497.97;;;17.96;51.98
69214;BME280;56325;47.030;18.518;2023-04-30T10:23:28;100496.19;;;18.32;53.12
69214;BME280;56325;47.030;18.518;2023-04-30T10:26:03;100486.06;;;18.52;52.72
69214;BME280;56325;47.030;18.518;2023-04-30T10:28:40;100494.69;;;18.43;52.13
69214;BME280;56325;47.030;18.518;2023-04-30T10:31:16;100491.13;;;18.42;51.24
69214;BME280;56325;47.030;18.518;2023-04-30T10:33:59;100502.25;;;18.53;52.33
69214;BME280;56325;47.030;18.518;2023-04-30T10:36:42;100493.16;;;18.25;51.96
69214;BME280;56325;47.030;18.518;2023-04-30T10:39:19;100493.63;;;17.79;52.30
69214;BME280;56325;47.030;18.518;2023-04-30T10:42:05;100493.28;;;17.54;53.72
69214;BME280;56325;47.030;18.518;2023-04-30T14:03:01;100356.84;;;22.79;36.91
69214;BME280;56325;47.030;18.518;2023-04-30T14:05:39;100356.84;;;22.79;36.91
69214;BME280;56325;47.030;18.518;2023-04-30T14:08:13;100370.09;;;22.39;37.39
69214;BME280;56325;47.030;18.518;2023-04-30T14:10:48;100369.63;;;22.08;36.58
69214;BME280;56325;47.030;18.518;2023-04-30T14:13:23;100387.84;;;21.83;37.89
69214;BME280;56325;47.030;18.518;2023-04-30T14:15:57;100385.38;;;21.29;37.16
69214;BME280;56325;47.030;18.518;2023-04-30T14:18:34;100384.78;;;21.36;39.09
69214;BME280;56325;47.030;18.518;2023-04-30T14:21:09;100373.59;;;21.68;37.46
69214;BME280;56325;47.030;18.518;2023-04-30T14:23:44;100365.25;;;21.49;37.17
69214;BME280;56325;47.030;18.518;2023-04-30T14:26:19;100369.09;;;21.78;37.67
69214;BME280;56325;47.030;18.518;2023-04-30T14:28:56;100361.03;;;22.19;37.55
69214;BME280;56325;47.030;18.518;2023-04-30T14:31:31;100361.12;;;21.82;37.72
69214;BME280;56325;47.030;18.518;2023-04-30T14:34:07;100361.78;;;21.05;37.50
69214;BME280;56325;47.030;18.518;2023-04-30T14:36:42;100362.06;;;21.20;38.71
69214;BME280;56325;47.030;18.518;2023-04-30T14:39:16;100362.94;;;21.66;38.00
69214;BME280;56325;47.030;18.518;2023-04-30T14:41:51;100353.84;;;21.92;37.01
69214;BME280;56325;47.030;18.518;2023-04-30T14:44:25;100356.25;;;21.69;36.66
69214;BME280;56325;47.030;18.518;2023-04-30T14:47:01;100352.87;;;21.89;36.83
69214;BME280;56325;47.030;18.518;2023-04-30T14:49:37;100362.00;;;21.77;36.82
69214;BME280;56325;47.030;18.518;2023-04-30T14:52:12;100360.41;;;21.49;37.20
69214;BME280;56325;47.030;18.518;2023-04-30T14:54:47;100351.69;;;21.85;37.04
69214;BME280;56325;47.030;18.518;2023-04-30T14:57:22;100349.50;;;22.23;36.67
69214;BME280;56325;47.030;18.518;2023-04-30T14:59:58;100365.19;;;21.68;37.45
69214;BME280;56325;47.030;18.518;2023-04-30T15:02:33;100370.69;;;21.41;37.86
69214;BME280;56325;47.030;18.518;2023-04-30T15:05:11;100368.72;;;21.55;36.98
69214;BME280;56325;47.030;18.518;2023-04-30T15:07:45;100374.25;;;21.74;36.84
69214;BME280;56325;47.030;18.518;2023-04-30T15:10:20;100367.53;;;21.96;37.01
69214;BME280;56325;47.030;18.518;2023-04-30T15:12:55;100370.00;;;21.99;36.62
69214;BME280;56325;47.030;18.518;2023-04-30T15:15:29;100356.00;;;21.54;36.70
69214;BME280;56325;47.030;18.518;2023-04-30T15:18:04;100374.19;;;21.29;37.93
69214;BME280;56325;47.030;18.518;2023-04-30T15:20:41;100375.22;;;21.44;38.01
69214;BME280;56325;47.030;18.518;2023-04-30T15:23:16;100374.47;;;21.44;38.54
69214;BME280;56325;47.030;18.518;2023-04-30T15:25:50;100370.25;;;21.37;37.74
69214;BME280;56325;47.030;18.518;2023-04-30T15:28:25;100384.44;;;21.58;38.42
69214;BME280;56325;47.030;18.518;2023-04-30T15:31:02;100378.41;;;21.35;38.64
69214;BME280;56325;47.030;18.518;2023-04-30T15:33:38;100389.34;;;21.14;39.08
69214;BME280;56325;47.030;18.518;2023-04-30T15:36:15;100391.41;;;21.14;38.92
69214;BME280;56325;47.030;18.518;2023-04-30T15:38:50;100391.78;;;21.05;38.55
69214;BME280;56325;47.030;18.518;2023-04-30T15:41:24;100391.16;;;21.12;38.93
69214;BME280;56325;47.030;18.518;2023-04-30T15:43:59;100397.94;;;21.22;38.18
69214;BME280;56325;47.030;18.518;2023-04-30T15:46:33;100391.19;;;21.49;38.19
69214;BME280;56325;47.030;18.518;2023-04-30T15:49:08;100392.63;;;21.37;37.89
69214;BME280;56325;47.030;18.518;2023-04-30T15:51:44;100399.72;;;21.19;38.81
69214;BME280;56325;47.030;18.518;2023-04-30T15:54:19;100399.91;;;21.27;38.25
69214;BME280;56325;47.030;18.518;2023-04-30T15:56:55;100395.38;;;21.00;38.66
69214;BME280;56325;47.030;18.518;2023-04-30T15:59:30;100388.31;;;21.36;38.62
69214;BME280;56325;47.030;18.518;2023-04-30T16:02:05;100390.56;;;21.19;38.09
69214;BME280;56325;47.030;18.518;2023-04-30T16:04:40;100398.03;;;20.49;38.91
69214;BME280;56325;47.030;18.518;2023-04-30T16:07:16;100399.06;;;20.70;45.51
69214;BME280;56325;47.030;18.518;2023-04-30T16:09:51;100389.19;;;21.07;40.45
69214;BME280;56325;47.030;18.518;2023-04-30T16:12:27;100396.09;;;20.62;42.06
69214;BME280;56325;47.030;18.518;2023-04-30T16:15:01;100390.78;;;21.02;38.57
69214;BME280;56325;47.030;18.518;2023-04-30T16:17:37;100402.34;;;20.93;39.21
69214;BME280;56325;47.030;18.518;2023-04-30T16:20:13;100397.69;;;20.58;40.00
69214;BME280;56325;47.030;18.518;2023-04-30T16:22:49;100389.28;;;21.01;38.78
69214;BME280;56325;47.030;18.518;2023-04-30T16:25:24;100389.66;;;20.49;39.80
69214;BME280;56325;47.030;18.518;2023-04-30T16:27:59;100390.91;;;20.72;39.36
69214;BME280;56325;47.030;18.518;2023-04-30T16:30:34;100392.44;;;20.49;39.37
69214;BME280;56325;47.030;18.518;2023-04-30T16:33:08;100408.97;;;20.47;39.34
69214;BME280;56325;47.030;18.518;2023-04-30T16:35:43;100393.53;;;20.10;40.74
69214;BME280;56325;47.030;18.518;2023-04-30T16:38:19;100389.28;;;20.04;40.54
69214;BME280;56325;47.030;18.518;2023-04-30T16:40:54;100394.31;;;20.41;40.65
69214;BME280;56325;47.030;18.518;2023-04-30T16:43:29;100398.09;;;20.13;41.36
69214;BME280;56325;47.030;18.518;2023-04-30T16:46:03;100394.31;;;20.11;41.52
69214;BME280;56325;47.030;18.518;2023-04-30T16:48:38;100399.34;;;19.88;41.98
69214;BME280;56325;47.030;18.518;2023-04-30T16:51:13;100404.53;;;19.73;42.36
69214;BME280;56325;47.030;18.518;2023-04-30T16:53:50;100418.94;;;19.36;43.07
69214;BME280;56325;47.030;18.518;2023-04-30T16:56:24;100417.34;;;18.99;43.32
69214;BME280;56325;47.030;18.518;2023-04-30T16:58:59;100423.59;;;19.16;43.68
69214;BME280;56325;47.030;18.518;2023-04-30T17:01:34;100430.53;;;18.98;43.95
69214;BME280;56325;47.030;18.518;2023-04-30T17:04:08;100433.19;;;19.21;43.77
69214;BME280;56325;47.030;18.518;2023-04-30T17:06:44;100431.06;;;18.91;44.03
69214;BME280;56325;47.030;18.518;2023-04-30T17:09:21;100431.91;;;18.47;44.81
69214;BME280;56325;47.030;18.518;2023-04-30T17:11:55;100435.19;;;18.51;45.42
69214;BME280;56325;47.030;18.518;2023-04-30T17:14:30;100442.00;;;18.56;45.26
69214;BME280;56325;47.030;18.518;2023-04-30T17:17:04;100432.47;;;18.01;46.19
69214;BME280;56325;47.030;18.518;2023-04-30T17:19:39;100432.47;;;18.12;46.31
69214;BME280;56325;47.030;18.518;2023-04-30T17:22:14;100431.19;;;18.13;46.59
69214;BME280;56325;47.030;18.518;2023-04-30T17:24:53;100431.94;;;17.86;46.96
69214;BME280;56325;47.030;18.518;2023-04-30T17:27:31;100441.22;;;17.60;46.96
69214;BME280;56325;47.030;18.518;2023-04-30T17:30:07;100436.13;;;17.48;47.25
69214;BME280;56325;47.030;18.518;2023-04-30T17:32:43;100444.22;;;17.46;47.68
69214;BME280;56325;47.030;18.518;2023-04-30T17:35:19;100449.50;;;17.38;47.81
69214;BME280;56325;47.030;18.518;2023-04-30T17:37:55;100444.97;;;17.46;47.30
69214;BME280;56325;47.030;18.518;2023-04-30T17:40:31;100449.00;;;17.28;47.72
69214;BME280;56325;47.030;18.518;2023-04-30T17:43:06;100458.31;;;17.20;48.22
69214;BME280;56325;47.030;18.518;2023-04-30T17:45:41;100460.00;;;17.00;48.50
69214;BME280;56325;47.030;18.518;2023-04-30T17:48:16;100459.03;;;17.15;48.43
69214;BME280;56325;47.030;18.518;2023-04-30T17:50:51;100464.31;;;17.07;48.66
69214;BME280;56325;47.030;18.518;2023-04-30T17:53:26;100469.41;;;17.14;48.95
69214;BME280;56325;47.030;18.518;2023-04-30T17:56:01;100466.59;;;17.09;48.78
69214;BME280;56325;47.030;18.518;2023-04-30T17:58:37;100468.84;;;17.04;49.33